sensor_id;sensor_type;location;lat;lon;timestamp;temperature;humidity
17146;DHT22;8688;54.444;18.444;2023-06-26T00:01:04;12.90;1.00
17146;DHT22;8688;54.444;18.444;2023-06-26T00:03:32;12.80;1.00
17146;DHT22;8688;54.444;18.444;2023-06-26T00:05:59;12.80;1.00
17146;DHT22;8688;54.444;18.444;2023-06-26T00:08:27;12.80;1.00
17146;DHT22;8688;54.444;18.444;2023-06-26T00:10:55;12.80;1.00
17146;DHT22;8688;54.444;18.444;2023-06-26T00:13:23;12.80;1.00
17146;DHT22;8688;54.444;18.444;2023-06-26T00:15:51;12.70;1.00
17146;DHT22;8688;54.444;18.444;2023-06-26T00:18:20;12.70;1.00
17146;DHT22;8688;54.444;18.444;2023-06-26T00:20:49;12.70;1.00
17146;DHT22;8688;54.444;18.444;2023-06-26T00:23:17;12.70;1.00
17146;DHT22;8688;54.444;18.444;2023-06-26T00:25:44;12.70;1.00
17146;DHT22;8688;54.444;18.444;2023-06-26T00:28:12;12.70;1.00
17146;DHT22;8688;54.444;18.444;2023-06-26T00:30:39;12.80;1.00
17146;DHT22;8688;54.444;18.444;2023-06-26T00:33:07;12.80;1.00
17146;DHT22;8688;54.444;18.444;2023-06-26T00:35:36;12.80;1.00
17146;DHT22;8688;54.444;18.444;2023-06-26T00:38:03;12.70;1.00
17146;DHT22;8688;54.444;18.444;2023-06-26T00:40:31;12.70;1.00
17146;DHT22;8688;54.444;18.444;2023-06-26T00:42:58;12.60;1.00
17146;DHT22;8688;54.444;18.444;2023-06-26T00:45:26;12.50;1.00
17146;DHT22;8688;54.444;18.444;2023-06-26T00:47:53;12.60;1.00
17146;DHT22;8688;54.444;18.444;2023-06-26T00:50:21;12.60;1.00
17146;DHT22;8688;54.444;18.444;2023-06-26T00:52:50;12.60;1.00
17146;DHT22;8688;54.444;18.444;2023-06-26T00:55:18;12.60;1.00
17146;DHT22;8688;54.444;18.444;2023-06-26T00:57:45;12.60;1.00
17146;DHT22;8688;54.444;18.444;2023-06-26T01:00:14;12.60;1.00
17146;DHT22;8688;54.444;18.444;2023-06-26T01:02:42;12.70;1.00
17146;DHT22;8688;54.444;18.444;2023-06-26T01:05:09;12.70;1.00
17146;DHT22;8688;54.444;18.444;2023-06-26T01:07:39;12.70;1.00
17146;DHT22;8688;54.444;18.444;2023-06-26T01:10:09;12.70;7.40
17146;DHT22;8688;54.444;18.444;2023-06-26T01:12:37;12.70;16.40
17146;DHT22;8688;54.444;18.444;2023-06-26T01:15:05;12.70;1.00
17146;DHT22;8688;54.444;18.444;2023-06-26T01:17:33;12.70;1.00
17146;DHT22;8688;54.444;18.444;2023-06-26T01:20:04;12.60;1.00
17146;DHT22;8688;54.444;18.444;2023-06-26T01:22:38;12.50;99.90
17146;DHT22;8688;54.444;18.444;2023-06-26T01:25:20;12.40;1.00
17146;DHT22;8688;54.444;18.444;2023-06-26T01:27:52;12.20;1.00
17146;DHT22;8688;54.444;18.444;2023-06-26T01:30:20;12.00;1.00
17146;DHT22;8688;54.444;18.444;2023-06-26T01:32:48;12.00;1.00
17146;DHT22;8688;54.444;18.444;2023-06-26T01:35:18;11.90;1.00
17146;DHT22;8688;54.444;18.444;2023-06-26T01:37:45;11.90;1.00
17146;DHT22;8688;54.444;18.444;2023-06-26T01:40:13;11.80;1.00
17146;DHT22;8688;54.444;18.444;2023-06-26T01:42:40;11.80;1.00
17146;DHT22;8688;54.444;18.444;2023-06-26T01:45:13;11.80;1.00
17146;DHT22;8688;54.444;18.444;2023-06-26T01:47:46;11.80;1.00
17146;DHT22;8688;54.444;18.444;2023-06-26T01:50:18;11.80;1.00
17146;DHT22;8688;54.444;18.444;2023-06-26T01:52:57;11.90;1.00
17146;DHT22;8688;54.444;18.444;2023-06-26T01:55:32;11.90;1.00
17146;DHT22;8688;54.444;18.444;2023-06-26T01:58:02;11.90;1.00
17146;DHT22;8688;54.444;18.444;2023-06-26T02:00:32;11.90;1.00
17146;DHT22;8688;54.444;18.444;2023-06-26T02:03:00;11.90;1.00
17146;DHT22;8688;54.444;18.444;2023-06-26T02:05:27;12.00;1.00
17146;DHT22;8688;54.444;18.444;2023-06-26T02:07:56;12.00;1.00
17146;DHT22;8688;54.444;18.444;2023-06-26T02:10:24;12.10;1.00
17146;DHT22;8688;54.444;18.444;2023-06-26T02:12:51;12.00;1.00
17146;DHT22;8688;54.444;18.444;2023-06-26T02:15:19;12.00;1.00
17146;DHT22;8688;54.444;18.444;2023-06-26T02:17:48;11.90;1.00
17146;DHT22;8688;54.444;18.444;2023-06-26T02:20:15;11.90;1.00
17146;DHT22;8688;54.444;18.444;2023-06-26T02:22:43;11.80;1.00
17146;DHT22;8688;54.444;18.444;2023-06-26T02:25:11;11.80;1.00
17146;DHT22;8688;54.444;18.444;2023-06-26T02:27:38;11.80;1.00
17146;DHT22;8688;54.444;18.444;2023-06-26T02:30:07;11.70;1.00
17146;DHT22;8688;54.444;18.444;2023-06-26T02:32:35;11.80;1.00
17146;DHT22;8688;54.444;18.444;2023-06-26T02:35:04;11.80;1.00
17146;DHT22;8688;54.444;18.444;2023-06-26T02:37:32;11.80;1.00
17146;DHT22;8688;54.444;18.444;2023-06-26T02:39:59;11.80;1.00
17146;DHT22;8688;54.444;18.444;2023-06-26T02:42:27;11.90;1.00
17146;DHT22;8688;54.444;18.444;2023-06-26T02:44:54;11.90;1.00
17146;DHT22;8688;54.444;18.444;2023-06-26T02:47:23;11.90;1.00
17146;DHT22;8688;54.444;18.444;2023-06-26T02:49:50;11.90;30.50
17146;DHT22;8688;54.444;18.444;2023-06-26T02:52:19;11.90;56.90
17146;DHT22;8688;54.444;18.444;2023-06-26T02:54:47;12.00;65.90
17146;DHT22;8688;54.444;18.444;2023-06-26T02:57:14;11.90;23.20
17146;DHT22;8688;54.444;18.444;2023-06-26T02:59:43;11.90;40.10
17146;DHT22;8688;54.444;18.444;2023-06-26T03:02:10;11.90;69.90
17146;DHT22;8688;54.444;18.444;2023-06-26T03:04:37;11.90;99.90
17146;DHT22;8688;54.444;18.444;2023-06-26T03:07:05;12.00;99.90
17146;DHT22;8688;54.444;18.444;2023-06-26T03:09:37;12.10;99.90
17146;DHT22;8688;54.444;18.444;2023-06-26T03:12:05;12.20;99.90
17146;DHT22;8688;54.444;18.444;2023-06-26T03:14:32;12.30;99.90
17146;DHT22;8688;54.444;18.444;2023-06-26T03:17:01;12.40;99.90
17146;DHT22;8688;54.444;18.444;2023-06-26T03:19:29;12.40;99.90
17146;DHT22;8688;54.444;18.444;2023-06-26T03:21:57;12.50;99.90
17146;DHT22;8688;54.444;18.444;2023-06-26T03:24:24;12.50;99.90
17146;DHT22;8688;54.444;18.444;2023-06-26T03:26:53;12.50;99.90
17146;DHT22;8688;54.444;18.444;2023-06-26T03:29:20;12.60;99.90
17146;DHT22;8688;54.444;18.444;2023-06-26T03:31:48;12.60;99.90
17146;DHT22;8688;54.444;18.444;2023-06-26T03:34:15;12.70;99.90
17146;DHT22;8688;54.444;18.444;2023-06-26T03:36:43;12.70;99.90
17146;DHT22;8688;54.444;18.444;2023-06-26T03:39:11;12.80;99.90
17146;DHT22;8688;54.444;18.444;2023-06-26T03:41:38;12.90;99.90
17146;DHT22;8688;54.444;18.444;2023-06-26T03:44:07;13.00;99.90
17146;DHT22;8688;54.444;18.444;2023-06-26T03:46:34;13.00;99.90
17146;DHT22;8688;54.444;18.444;2023-06-26T03:49:02;13.10;99.90
17146;DHT22;8688;54.444;18.444;2023-06-26T03:51:29;13.10;99.90
17146;DHT22;8688;54.444;18.444;2023-06-26T03:53:57;13.20;99.90
17146;DHT22;8688;54.444;18.444;2023-06-26T03:56:24;13.30;99.90
17146;DHT22;8688;54.444;18.444;2023-06-26T03:58:51;13.30;99.90
17146;DHT22;8688;54.444;18.444;2023-06-26T04:01:21;13.30;99.90
17146;DHT22;8688;54.444;18.444;2023-06-26T04:03:49;13.40;99.90
17146;DHT22;8688;54.444;18.444;2023-06-26T04:06:16;13.40;99.90
17146;DHT22;8688;54.444;18.444;2023-06-26T04:08:43;13.50;99.90
17146;DHT22;8688;54.444;18.444;2023-06-26T04:11:11;13.60;99.90
17146;DHT22;8688;54.444;18.444;2023-06-26T04:13:38;13.70;99.90
17146;DHT22;8688;54.444;18.444;2023-06-26T04:16:06;13.70;99.90
17146;DHT22;8688;54.444;18.444;2023-06-26T04:18:35;13.80;99.90
17146;DHT22;8688;54.444;18.444;2023-06-26T04:21:07;13.90;99.90
17146;DHT22;8688;54.444;18.444;2023-06-26T04:23:35;14.00;99.90
17146;DHT22;8688;54.444;18.444;2023-06-26T04:26:03;14.00;99.90
17146;DHT22;8688;54.444;18.444;2023-06-26T04:28:30;14.10;99.90
17146;DHT22;8688;54.444;18.444;2023-06-26T04:30:58;14.10;99.90
17146;DHT22;8688;54.444;18.444;2023-06-26T04:33:26;14.20;99.90
17146;DHT22;8688;54.444;18.444;2023-06-26T04:35:55;14.30;99.90
17146;DHT22;8688;54.444;18.444;2023-06-26T04:38:22;14.40;99.90
17146;DHT22;8688;54.444;18.444;2023-06-26T04:40:50;14.40;99.90
17146;DHT22;8688;54.444;18.444;2023-06-26T04:43:17;14.50;99.90
17146;DHT22;8688;54.444;18.444;2023-06-26T04:45:45;14.60;99.90
17146;DHT22;8688;54.444;18.444;2023-06-26T04:48:15;14.70;99.90
17146;DHT22;8688;54.444;18.444;2023-06-26T04:50:42;14.80;99.90
17146;DHT22;8688;54.444;18.444;2023-06-26T04:53:13;14.90;60.10
17146;DHT22;8688;54.444;18.444;2023-06-26T04:55:40;14.90;19.30
17146;DHT22;8688;54.444;18.444;2023-06-26T04:58:08;15.10;17.30
17146;DHT22;8688;54.444;18.444;2023-06-26T05:00:35;15.20;1.00
17146;DHT22;8688;54.444;18.444;2023-06-26T05:03:03;15.20;1.00
17146;DHT22;8688;54.444;18.444;2023-06-26T05:05:30;15.40;1.00
17146;DHT22;8688;54.444;18.444;2023-06-26T05:07:57;15.50;1.00
17146;DHT22;8688;54.444;18.444;2023-06-26T05:10:26;15.60;99.90
17146;DHT22;8688;54.444;18.444;2023-06-26T05:12:54;15.70;99.90
17146;DHT22;8688;54.444;18.444;2023-06-26T05:15:21;15.90;1.00
17146;DHT22;8688;54.444;18.444;2023-06-26T05:17:49;16.00;99.90
17146;DHT22;8688;54.444;18.444;2023-06-26T05:20:16;16.10;1.00
17146;DHT22;8688;54.444;18.444;2023-06-26T05:22:44;16.20;99.90
17146;DHT22;8688;54.444;18.444;2023-06-26T05:25:12;16.40;99.90
17146;DHT22;8688;54.444;18.444;2023-06-26T05:27:42;16.50;1.00
17146;DHT22;8688;54.444;18.444;2023-06-26T05:30:11;16.70;1.00
17146;DHT22;8688;54.444;18.444;2023-06-26T05:32:40;16.90;1.00
17146;DHT22;8688;54.444;18.444;2023-06-26T05:35:08;16.90;1.00
17146;DHT22;8688;54.444;18.444;2023-06-26T05:37:36;17.20;99.90
17146;DHT22;8688;54.444;18.444;2023-06-26T05:40:05;17.20;99.90
17146;DHT22;8688;54.444;18.444;2023-06-26T05:42:34;17.30;99.90
17146;DHT22;8688;54.444;18.444;2023-06-26T05:45:03;17.40;99.90
17146;DHT22;8688;54.444;18.444;2023-06-26T05:47:31;17.40;1.00
17146;DHT22;8688;54.444;18.444;2023-06-26T05:49:59;17.60;1.00
17146;DHT22;8688;54.444;18.444;2023-06-26T05:52:27;17.90;1.00
17146;DHT22;8688;54.444;18.444;2023-06-26T05:54:56;18.10;1.00
17146;DHT22;8688;54.444;18.444;2023-06-26T05:57:27;18.30;1.00
17146;DHT22;8688;54.444;18.444;2023-06-26T05:59:56;18.40;1.00
17146;DHT22;8688;54.444;18.444;2023-06-26T06:02:25;18.60;1.00
17146;DHT22;8688;54.444;18.444;2023-06-26T06:04:52;18.90;99.90
17146;DHT22;8688;54.444;18.444;2023-06-26T06:07:20;18.90;99.90
17146;DHT22;8688;54.444;18.444;2023-06-26T06:09:47;19.00;99.90
17146;DHT22;8688;54.444;18.444;2023-06-26T06:12:15;19.20;99.90
17146;DHT22;8688;54.444;18.444;2023-06-26T06:14:42;19.40;99.90
17146;DHT22;8688;54.444;18.444;2023-06-26T06:17:10;19.70;99.90
17146;DHT22;8688;54.444;18.444;2023-06-26T06:19:39;19.80;87.40
17146;DHT22;8688;54.444;18.444;2023-06-26T06:22:06;19.80;98.20
17146;DHT22;8688;54.444;18.444;2023-06-26T06:24:34;19.70;46.20
17146;DHT22;8688;54.444;18.444;2023-06-26T06:27:01;19.90;99.40
17146;DHT22;8688;54.444;18.444;2023-06-26T06:29:28;20.00;99.90
17146;DHT22;8688;54.444;18.444;2023-06-26T06:31:57;20.20;99.90
17146;DHT22;8688;54.444;18.444;2023-06-26T06:34:24;20.30;99.90
17146;DHT22;8688;54.444;18.444;2023-06-26T06:36:53;20.30;79.40
17146;DHT22;8688;54.444;18.444;2023-06-26T06:39:21;20.40;26.20
17146;DHT22;8688;54.444;18.444;2023-06-26T06:41:48;20.40;10.30
17146;DHT22;8688;54.444;18.444;2023-06-26T06:44:15;20.30;26.20
17146;DHT22;8688;54.444;18.444;2023-06-26T06:46:43;20.30;31.60
17146;DHT22;8688;54.444;18.444;2023-06-26T06:49:10;20.50;52.10
17146;DHT22;8688;54.444;18.444;2023-06-26T06:51:38;20.50;46.50
17146;DHT22;8688;54.444;18.444;2023-06-26T06:54:07;20.50;56.30
17146;DHT22;8688;54.444;18.444;2023-06-26T06:56:35;20.40;72.00
17146;DHT22;8688;54.444;18.444;2023-06-26T06:59:02;20.40;93.30
17146;DHT22;8688;54.444;18.444;2023-06-26T07:01:30;20.60;52.00
17146;DHT22;8688;54.444;18.444;2023-06-26T07:03:57;20.70;53.80
17146;DHT22;8688;54.444;18.444;2023-06-26T07:06:24;20.80;14.80
17146;DHT22;8688;54.444;18.444;2023-06-26T07:08:52;20.80;16.80
17146;DHT22;8688;54.444;18.444;2023-06-26T07:11:21;20.90;4.30
17146;DHT22;8688;54.444;18.444;2023-06-26T07:13:49;20.90;3.60
17146;DHT22;8688;54.444;18.444;2023-06-26T07:16:16;21.10;1.00
17146;DHT22;8688;54.444;18.444;2023-06-26T07:18:44;21.10;44.20
17146;DHT22;8688;54.444;18.444;2023-06-26T07:21:11;21.00;99.90
17146;DHT22;8688;54.444;18.444;2023-06-26T07:23:39;20.90;99.90
17146;DHT22;8688;54.444;18.444;2023-06-26T07:26:06;20.90;99.90
17146;DHT22;8688;54.444;18.444;2023-06-26T07:28:35;21.00;28.40
17146;DHT22;8688;54.444;18.444;2023-06-26T07:31:02;21.20;18.10
17146;DHT22;8688;54.444;18.444;2023-06-26T07:33:30;21.40;1.00
17146;DHT22;8688;54.444;18.444;2023-06-26T07:35:58;21.50;1.00
17146;DHT22;8688;54.444;18.444;2023-06-26T07:38:25;21.50;1.00
17146;DHT22;8688;54.444;18.444;2023-06-26T07:40:52;21.60;1.00
17146;DHT22;8688;54.444;18.444;2023-06-26T07:43:20;21.60;1.00
17146;DHT22;8688;54.444;18.444;2023-06-26T07:45:50;21.70;1.00
17146;DHT22;8688;54.444;18.444;2023-06-26T07:48:19;21.70;1.00
17146;DHT22;8688;54.444;18.444;2023-06-26T07:50:47;21.80;1.00
17146;DHT22;8688;54.444;18.444;2023-06-26T07:53:14;21.70;1.00
17146;DHT22;8688;54.444;18.444;2023-06-26T07:55:42;21.80;1.00
17146;DHT22;8688;54.444;18.444;2023-06-26T07:58:09;21.80;1.00
17146;DHT22;8688;54.444;18.444;2023-06-26T08:00:37;21.90;1.00
17146;DHT22;8688;54.444;18.444;2023-06-26T08:03:06;21.80;1.00
17146;DHT22;8688;54.444;18.444;2023-06-26T08:05:33;21.80;1.00
17146;DHT22;8688;54.444;18.444;2023-06-26T08:08:00;21.90;1.00
17146;DHT22;8688;54.444;18.444;2023-06-26T08:10:29;22.10;1.00
17146;DHT22;8688;54.444;18.444;2023-06-26T08:12:56;22.20;1.00
17146;DHT22;8688;54.444;18.444;2023-06-26T08:15:24;22.50;1.00
17146;DHT22;8688;54.444;18.444;2023-06-26T08:17:52;22.50;1.00
17146;DHT22;8688;54.444;18.444;2023-06-26T08:20:21;22.60;1.00
17146;DHT22;8688;54.444;18.444;2023-06-26T08:22:49;22.60;1.00
17146;DHT22;8688;54.444;18.444;2023-06-26T08:25:18;22.70;1.00
17146;DHT22;8688;54.444;18.444;2023-06-26T08:27:46;22.70;29.50
17146;DHT22;8688;54.444;18.444;2023-06-26T08:30:14;22.70;22.60
17146;DHT22;8688;54.444;18.444;2023-06-26T08:32:41;22.70;62.20
17146;DHT22;8688;54.444;18.444;2023-06-26T08:35:09;22.70;43.70
17146;DHT22;8688;54.444;18.444;2023-06-26T08:37:38;22.70;51.80
17146;DHT22;8688;54.444;18.444;2023-06-26T08:40:07;22.70;51.30
17146;DHT22;8688;54.444;18.444;2023-06-26T08:42:35;22.80;99.50
17146;DHT22;8688;54.444;18.444;2023-06-26T08:45:03;22.80;96.50
17146;DHT22;8688;54.444;18.444;2023-06-26T08:47:35;22.80;34.10
17146;DHT22;8688;54.444;18.444;2023-06-26T08:50:08;22.80;71.80
17146;DHT22;8688;54.444;18.444;2023-06-26T08:52:43;22.80;99.90
17146;DHT22;8688;54.444;18.444;2023-06-26T08:55:12;22.90;47.50
17146;DHT22;8688;54.444;18.444;2023-06-26T08:57:42;22.80;66.60
17146;DHT22;8688;54.444;18.444;2023-06-26T09:00:11;23.10;85.80
17146;DHT22;8688;54.444;18.444;2023-06-26T09:02:41;23.30;67.70
17146;DHT22;8688;54.444;18.444;2023-06-26T09:05:08;23.40;27.70
17146;DHT22;8688;54.444;18.444;2023-06-26T09:07:37;23.30;20.80
17146;DHT22;8688;54.444;18.444;2023-06-26T09:10:06;23.30;10.90
17146;DHT22;8688;54.444;18.444;2023-06-26T09:12:35;23.20;29.20
17146;DHT22;8688;54.444;18.444;2023-06-26T09:15:05;23.30;50.20
17146;DHT22;8688;54.444;18.444;2023-06-26T09:17:39;23.50;40.70
17146;DHT22;8688;54.444;18.444;2023-06-26T09:20:08;23.60;3.00
17146;DHT22;8688;54.444;18.444;2023-06-26T09:22:40;23.50;58.40
17146;DHT22;8688;54.444;18.444;2023-06-26T09:25:08;23.50;63.30
17146;DHT22;8688;54.444;18.444;2023-06-26T09:27:39;23.60;92.00
17146;DHT22;8688;54.444;18.444;2023-06-26T09:30:08;23.70;90.10
17146;DHT22;8688;54.444;18.444;2023-06-26T09:32:35;23.70;40.60
17146;DHT22;8688;54.444;18.444;2023-06-26T09:35:04;23.60;64.00
17146;DHT22;8688;54.444;18.444;2023-06-26T09:37:32;23.60;99.90
17146;DHT22;8688;54.444;18.444;2023-06-26T09:40:04;23.70;76.30
17146;DHT22;8688;54.444;18.444;2023-06-26T09:42:31;23.60;63.80
17146;DHT22;8688;54.444;18.444;2023-06-26T09:45:00;23.60;56.80
17146;DHT22;8688;54.444;18.444;2023-06-26T09:47:30;23.60;66.30
17146;DHT22;8688;54.444;18.444;2023-06-26T09:49:58;23.60;46.10
17146;DHT22;8688;54.444;18.444;2023-06-26T09:52:27;23.70;30.90
17146;DHT22;8688;54.444;18.444;2023-06-26T09:55:09;23.70;19.40
17146;DHT22;8688;54.444;18.444;2023-06-26T09:57:38;23.60;17.40
17146;DHT22;8688;54.444;18.444;2023-06-26T10:00:07;23.70;17.00
17146;DHT22;8688;54.444;18.444;2023-06-26T10:02:35;23.70;16.90
17146;DHT22;8688;54.444;18.444;2023-06-26T10:05:02;23.70;10.40
17146;DHT22;8688;54.444;18.444;2023-06-26T10:07:31;23.60;12.40
17146;DHT22;8688;54.444;18.444;2023-06-26T10:10:01;23.70;1.10
17146;DHT22;8688;54.444;18.444;2023-06-26T10:12:31;23.70;1.00
17146;DHT22;8688;54.444;18.444;2023-06-26T10:14:59;23.90;1.00
17146;DHT22;8688;54.444;18.444;2023-06-26T10:17:34;23.90;1.00
17146;DHT22;8688;54.444;18.444;2023-06-26T10:20:03;24.00;1.00
17146;DHT22;8688;54.444;18.444;2023-06-26T10:22:45;23.90;1.00
17146;DHT22;8688;54.444;18.444;2023-06-26T10:25:17;23.80;1.00
17146;DHT22;8688;54.444;18.444;2023-06-26T10:27:49;23.80;1.00
17146;DHT22;8688;54.444;18.444;2023-06-26T10:30:20;23.80;1.00
17146;DHT22;8688;54.444;18.444;2023-06-26T10:32:50;23.90;1.00
17146;DHT22;8688;54.444;18.444;2023-06-26T10:35:18;23.90;1.00
17146;DHT22;8688;54.444;18.444;2023-06-26T10:37:46;23.90;1.00
17146;DHT22;8688;54.444;18.444;2023-06-26T10:40:15;23.80;1.00
17146;DHT22;8688;54.444;18.444;2023-06-26T10:42:49;23.90;1.00
17146;DHT22;8688;54.444;18.444;2023-06-26T10:45:20;23.90;1.00
17146;DHT22;8688;54.444;18.444;2023-06-26T10:47:52;23.80;1.00
17146;DHT22;8688;54.444;18.444;2023-06-26T10:50:22;23.80;1.00
17146;DHT22;8688;54.444;18.444;2023-06-26T10:53:09;23.80;1.00
17146;DHT22;8688;54.444;18.444;2023-06-26T10:55:37;23.90;1.00
17146;DHT22;8688;54.444;18.444;2023-06-26T10:58:27;23.90;1.00
17146;DHT22;8688;54.444;18.444;2023-06-26T11:01:19;24.00;1.00
17146;DHT22;8688;54.444;18.444;2023-06-26T11:03:59;23.90;1.00
17146;DHT22;8688;54.444;18.444;2023-06-26T11:06:29;23.90;1.00
17146;DHT22;8688;54.444;18.444;2023-06-26T11:09:01;23.90;1.00
17146;DHT22;8688;54.444;18.444;2023-06-26T11:11:59;24.00;1.00
17146;DHT22;8688;54.444;18.444;2023-06-26T11:14:33;24.00;1.00
17146;DHT22;8688;54.444;18.444;2023-06-26T11:17:03;24.00;1.00
17146;DHT22;8688;54.444;18.444;2023-06-26T11:19:31;24.10;1.00
17146;DHT22;8688;54.444;18.444;2023-06-26T11:21:59;24.10;1.00
17146;DHT22;8688;54.444;18.444;2023-06-26T11:24:28;24.10;1.00
17146;DHT22;8688;54.444;18.444;2023-06-26T11:27:00;24.20;1.00
17146;DHT22;8688;54.444;18.444;2023-06-26T11:29:32;24.30;1.00
17146;DHT22;8688;54.444;18.444;2023-06-26T11:32:02;24.30;1.00
17146;DHT22;8688;54.444;18.444;2023-06-26T11:34:31;24.30;1.00
17146;DHT22;8688;54.444;18.444;2023-06-26T11:36:59;24.40;1.00
17146;DHT22;8688;54.444;18.444;2023-06-26T11:39:29;24.40;1.00
17146;DHT22;8688;54.444;18.444;2023-06-26T11:41:56;24.40;1.00
17146;DHT22;8688;54.444;18.444;2023-06-26T11:44:24;24.40;1.00
17146;DHT22;8688;54.444;18.444;2023-06-26T11:46:57;24.50;1.00
17146;DHT22;8688;54.444;18.444;2023-06-26T11:49:25;24.50;1.00
17146;DHT22;8688;54.444;18.444;2023-06-26T11:51:53;24.60;1.00
17146;DHT22;8688;54.444;18.444;2023-06-26T11:54:24;24.60;1.00
17146;DHT22;8688;54.444;18.444;2023-06-26T11:56:54;24.70;1.00
17146;DHT22;8688;54.444;18.444;2023-06-26T11:59:22;24.70;1.00
17146;DHT22;8688;54.444;18.444;2023-06-26T12:01:50;24.70;1.00
17146;DHT22;8688;54.444;18.444;2023-06-26T12:04:20;24.80;1.00
17146;DHT22;8688;54.444;18.444;2023-06-26T12:06:50;24.80;1.00
17146;DHT22;8688;54.444;18.444;2023-06-26T12:09:19;24.90;1.00
17146;DHT22;8688;54.444;18.444;2023-06-26T12:11:48;24.90;1.00
17146;DHT22;8688;54.444;18.444;2023-06-26T12:14:17;24.90;1.00
17146;DHT22;8688;54.444;18.444;2023-06-26T12:16:46;25.00;1.00
17146;DHT22;8688;54.444;18.444;2023-06-26T12:19:14;25.10;1.00
17146;DHT22;8688;54.444;18.444;2023-06-26T12:21:47;25.30;1.00
17146;DHT22;8688;54.444;18.444;2023-06-26T12:24:20;25.40;1.00
17146;DHT22;8688;54.444;18.444;2023-06-26T12:26:50;25.60;1.00
17146;DHT22;8688;54.444;18.444;2023-06-26T12:29:20;25.60;1.00
17146;DHT22;8688;54.444;18.444;2023-06-26T12:31:50;25.60;1.00
17146;DHT22;8688;54.444;18.444;2023-06-26T12:34:19;25.50;1.00
17146;DHT22;8688;54.444;18.444;2023-06-26T12:36:50;25.50;1.00
17146;DHT22;8688;54.444;18.444;2023-06-26T12:39:19;25.60;1.00
17146;DHT22;8688;54.444;18.444;2023-06-26T12:41:48;25.70;1.00
17146;DHT22;8688;54.444;18.444;2023-06-26T12:44:20;25.60;1.00
17146;DHT22;8688;54.444;18.444;2023-06-26T12:46:49;25.70;1.00
17146;DHT22;8688;54.444;18.444;2023-06-26T12:49:17;25.70;1.00
17146;DHT22;8688;54.444;18.444;2023-06-26T12:51:47;25.80;1.00
17146;DHT22;8688;54.444;18.444;2023-06-26T12:54:15;25.70;1.00
17146;DHT22;8688;54.444;18.444;2023-06-26T12:56:42;25.80;1.00
17146;DHT22;8688;54.444;18.444;2023-06-26T12:59:10;26.00;1.00
17146;DHT22;8688;54.444;18.444;2023-06-26T13:01:37;25.90;1.00
17146;DHT22;8688;54.444;18.444;2023-06-26T13:04:06;25.70;1.00
17146;DHT22;8688;54.444;18.444;2023-06-26T13:06:34;25.80;1.00
17146;DHT22;8688;54.444;18.444;2023-06-26T13:09:03;26.00;1.00
17146;DHT22;8688;54.444;18.444;2023-06-26T13:11:31;26.20;1.00
17146;DHT22;8688;54.444;18.444;2023-06-26T13:13:59;26.30;1.00
17146;DHT22;8688;54.444;18.444;2023-06-26T13:16:26;26.00;1.00
17146;DHT22;8688;54.444;18.444;2023-06-26T13:18:54;25.90;1.00
17146;DHT22;8688;54.444;18.444;2023-06-26T13:21:21;25.90;1.00
17146;DHT22;8688;54.444;18.444;2023-06-26T13:23:49;25.70;1.00
17146;DHT22;8688;54.444;18.444;2023-06-26T13:26:18;25.70;1.00
17146;DHT22;8688;54.444;18.444;2023-06-26T13:28:46;25.70;1.00
17146;DHT22;8688;54.444;18.444;2023-06-26T13:31:13;25.80;1.00
17146;DHT22;8688;54.444;18.444;2023-06-26T13:33:41;25.80;1.00
17146;DHT22;8688;54.444;18.444;2023-06-26T13:36:08;25.80;1.00
17146;DHT22;8688;54.444;18.444;2023-06-26T13:38:36;25.90;1.00
17146;DHT22;8688;54.444;18.444;2023-06-26T13:41:03;26.00;1.00
17146;DHT22;8688;54.444;18.444;2023-06-26T13:43:33;26.10;1.00
17146;DHT22;8688;54.444;18.444;2023-06-26T13:46:01;26.00;1.00
17146;DHT22;8688;54.444;18.444;2023-06-26T13:48:28;26.10;1.00
17146;DHT22;8688;54.444;18.444;2023-06-26T13:50:57;26.00;1.00
17146;DHT22;8688;54.444;18.444;2023-06-26T13:53:24;25.90;1.00
17146;DHT22;8688;54.444;18.444;2023-06-26T13:55:54;26.00;1.00
17146;DHT22;8688;54.444;18.444;2023-06-26T13:58:22;25.90;1.00
17146;DHT22;8688;54.444;18.444;2023-06-26T14:00:54;25.80;1.00
17146;DHT22;8688;54.444;18.444;2023-06-26T14:03:25;25.90;1.00
17146;DHT22;8688;54.444;18.444;2023-06-26T14:05:53;25.90;1.00
17146;DHT22;8688;54.444;18.444;2023-06-26T14:08:20;25.80;1.00
17146;DHT22;8688;54.444;18.444;2023-06-26T14:10:48;25.80;1.00
17146;DHT22;8688;54.444;18.444;2023-06-26T14:13:15;25.60;1.00
17146;DHT22;8688;54.444;18.444;2023-06-26T14:15:43;25.70;1.00
17146;DHT22;8688;54.444;18.444;2023-06-26T14:18:12;25.70;1.00
17146;DHT22;8688;54.444;18.444;2023-06-26T14:20:40;25.60;1.00
17146;DHT22;8688;54.444;18.444;2023-06-26T14:23:08;25.60;1.00
17146;DHT22;8688;54.444;18.444;2023-06-26T14:25:36;25.60;1.00
17146;DHT22;8688;54.444;18.444;2023-06-26T14:28:04;25.80;1.00
17146;DHT22;8688;54.444;18.444;2023-06-26T14:30:35;25.70;1.00
17146;DHT22;8688;54.444;18.444;2023-06-26T14:33:02;25.60;1.00
17146;DHT22;8688;54.444;18.444;2023-06-26T14:35:31;25.60;1.00
17146;DHT22;8688;54.444;18.444;2023-06-26T14:37:59;25.60;1.00
17146;DHT22;8688;54.444;18.444;2023-06-26T14:40:27;25.70;1.00
17146;DHT22;8688;54.444;18.444;2023-06-26T14:42:54;26.10;1.00
17146;DHT22;8688;54.444;18.444;2023-06-26T14:45:22;26.10;1.00
17146;DHT22;8688;54.444;18.444;2023-06-26T14:47:50;26.00;1.00
17146;DHT22;8688;54.444;18.444;2023-06-26T14:50:17;25.70;1.00
17146;DHT22;8688;54.444;18.444;2023-06-26T14:52:46;25.70;1.00
17146;DHT22;8688;54.444;18.444;2023-06-26T14:55:14;25.70;1.00
17146;DHT22;8688;54.444;18.444;2023-06-26T14:57:42;25.90;1.00
17146;DHT22;8688;54.444;18.444;2023-06-26T15:00:11;25.90;1.00
17146;DHT22;8688;54.444;18.444;2023-06-26T15:02:39;26.10;1.00
17146;DHT22;8688;54.444;18.444;2023-06-26T15:05:08;26.20;1.00
17146;DHT22;8688;54.444;18.444;2023-06-26T15:07:38;26.30;1.00
17146;DHT22;8688;54.444;18.444;2023-06-26T15:10:09;26.30;1.00
17146;DHT22;8688;54.444;18.444;2023-06-26T15:12:38;26.10;1.00
17146;DHT22;8688;54.444;18.444;2023-06-26T15:15:06;26.30;1.00
17146;DHT22;8688;54.444;18.444;2023-06-26T15:17:34;26.60;1.00
17146;DHT22;8688;54.444;18.444;2023-06-26T15:20:02;26.50;1.00
17146;DHT22;8688;54.444;18.444;2023-06-26T15:22:30;26.40;1.00
17146;DHT22;8688;54.444;18.444;2023-06-26T15:25:00;26.10;1.00
17146;DHT22;8688;54.444;18.444;2023-06-26T15:27:29;26.10;1.00
17146;DHT22;8688;54.444;18.444;2023-06-26T15:29:57;26.10;1.00
17146;DHT22;8688;54.444;18.444;2023-06-26T15:32:25;26.20;1.00
17146;DHT22;8688;54.444;18.444;2023-06-26T15:34:52;26.40;1.00
17146;DHT22;8688;54.444;18.444;2023-06-26T15:37:20;26.30;1.00
17146;DHT22;8688;54.444;18.444;2023-06-26T15:39:47;26.20;1.00
17146;DHT22;8688;54.444;18.444;2023-06-26T15:42:15;26.10;1.00
17146;DHT22;8688;54.444;18.444;2023-06-26T15:44:44;26.10;1.00
17146;DHT22;8688;54.444;18.444;2023-06-26T15:47:11;26.00;1.00
17146;DHT22;8688;54.444;18.444;2023-06-26T15:49:39;26.20;1.00